Back to Top

Language: 

NOAA Climate Reports...


Report for 2010 Apr
                   MONTHLY CLIMATOLOGICAL SUMMARY for APR. 2010

NAME: Delerius   CITY:    STATE:  
ELEV:   100 m  LAT:  53 37' 05" N  LONG:   1 27' 13" W

                   TEMPERATURE (C), RAIN  (mm), WIND SPEED (mph)

                                      HEAT  COOL        AVG
    MEAN                              DEG   DEG         WIND                 DOM
DAY TEMP  HIGH   TIME   LOW    TIME   DAYS  DAYS  RAIN  SPEED HIGH   TIME    DIR
------------------------------------------------------------------------------------
 1   --- ---     19:15   ---    0:15   ---   0.0   0.0  12.4  40.0   12:30     W
 2   --- ---      0:15   ---    0:15   ---   0.0   0.0   5.8  27.0   16:15    SE
 3   --- ---      0:15   ---    0:15   ---   0.0   0.0   4.5  19.0   16:00     S
 4   --- ---     20:45   ---    0:15   ---   0.0   0.0   6.1  22.0   14:45   WNW
 5   --- ---      5:15   ---    6:00   ---   0.0   2.6  10.2  27.0   13:00   SSW
 6   --- ---      0:15   ---    0:15   ---   0.0   0.0   7.6  30.0   14:00   SSW
 7   --- ---      0:15   ---    0:15   ---   0.0   0.6   4.4  21.0   11:45   NNW
 8   --- ---      0:15   ---    0:15   ---   0.0   0.2   7.2  24.0   15:45     W
 9   --- ---      0:15   ---    0:15   ---   0.0   0.0   2.4  10.0   15:00    SE
10   --- ---      0:15   ---    0:15   ---   0.0   0.0   2.1  11.0   15:15    SE
11   --- ---      0:15   ---    0:15   ---   0.0   0.0   4.6  16.0   18:00   ENE
12   --- ---      0:15   ---    0:15   ---   0.0   0.0   4.3  19.0   17:00   NNE
13   --- ---      0:15   ---    0:15   ---   0.0   0.2   6.0  24.0   14:15     N
14   --- ---      0:15   ---    0:15   ---   0.0   0.0   6.8  24.0    3:00   NNE
15   --- ---      0:15   ---    0:15   ---   0.0   0.0   5.3  19.0   10:45   NNE
16   --- ---      0:15   ---    0:15   ---   0.0   0.2   3.1  20.0   11:00    NW
17   --- ---      0:15   ---    0:15   ---   0.0   0.0   4.0  18.0   12:30    SW
18   --- ---      2:00   ---    0:15   ---   0.0   2.0   1.5  12.0   10:15    NW
19   --- ---      0:15   ---    0:15   ---   0.0   3.8   4.6  19.0    2:30   ENE
20   --- ---      0:15   ---    0:15   ---   0.0   0.0   7.4  31.0    9:30     W
21   --- ---      0:15   ---    0:15   ---   0.0   0.0   3.8  21.0   11:00     N
22   --- ---      0:15   ---    0:15   ---   0.0   0.0   3.3  21.0   14:45   WNW
23   --- ---      0:15   ---    0:15   ---   0.0   0.0   1.7  11.0   12:00     E
24   --- ---      0:15   ---    0:15   ---   0.0   0.0   4.3  19.0   15:00    SE
25   --- ---      0:15   ---    0:15   ---   0.0   1.2   2.1  22.0   17:45    SE
26   --- ---      0:15   ---    0:15   ---   0.0   0.2   7.0  27.0   15:45     W
27   --- ---      0:15   ---    0:15   ---   0.0   0.0   3.5  19.0   15:00    SE
28   --- ---      0:15   ---    0:15   ---   0.0   0.0   7.5  26.0   14:30   SSW
29   --- ---      0:15   ---    0:15   ---   0.0   5.8   3.6  15.0   10:00     W
30   --- ---      0:15   ---    0:15   ---   0.0   3.6   5.8  20.0   12:30     W
-------------------------------------------------------------------------------------
                  18             1           0.0  20.4   5.1  40.0     1       W

Max >=  32.0:  0
Max <=   0.0: 26
Min <=   0.0: 30
Min <= -18.0: 30
Max Rain: 5.79 ON 29/04/10
Days of Rain: 11 (> .2 mm) 5 (> 2 mm) 0 (> 20 mm)
Heat Base:  18.3  Cool Base:  18.3  Method: Integration

Data updates at regular intervals.